sensor_id;sensor_type;location;lat;lon;timestamp;P1;durP1;ratioP1;P2;durP2;ratioP2
78931;SDS011;68331;53.362;55.932;2023-07-09T00:02:15;18.52;;;11.25;;
78931;SDS011;68331;53.362;55.932;2023-07-09T00:04:42;19.00;;;11.15;;
78931;SDS011;68331;53.362;55.932;2023-07-09T00:07:11;18.95;;;11.32;;
78931;SDS011;68331;53.362;55.932;2023-07-09T00:09:44;20.70;;;11.38;;
78931;SDS011;68331;53.362;55.932;2023-07-09T00:12:14;24.15;;;11.60;;
78931;SDS011;68331;53.362;55.932;2023-07-09T00:14:41;19.38;;;10.80;;
78931;SDS011;68331;53.362;55.932;2023-07-09T00:17:12;19.42;;;11.65;;
78931;SDS011;68331;53.362;55.932;2023-07-09T00:19:45;18.50;;;11.50;;
78931;SDS011;68331;53.362;55.932;2023-07-09T00:22:15;25.15;;;12.00;;
78931;SDS011;68331;53.362;55.932;2023-07-09T00:24:42;16.95;;;10.20;;
78931;SDS011;68331;53.362;55.932;2023-07-09T00:27:13;18.35;;;10.57;;
78931;SDS011;68331;53.362;55.932;2023-07-09T00:29:42;16.65;;;10.75;;
78931;SDS011;68331;53.362;55.932;2023-07-09T00:32:12;21.13;;;11.32;;
78931;SDS011;68331;53.362;55.932;2023-07-09T00:34:43;18.35;;;10.50;;
78931;SDS011;68331;53.362;55.932;2023-07-09T00:37:16;21.42;;;10.98;;
78931;SDS011;68331;53.362;55.932;2023-07-09T00:39:43;21.75;;;11.00;;
78931;SDS011;68331;53.362;55.932;2023-07-09T00:42:20;18.10;;;11.10;;
78931;SDS011;68331;53.362;55.932;2023-07-09T00:44:53;25.13;;;11.93;;
78931;SDS011;68331;53.362;55.932;2023-07-09T00:47:24;19.80;;;11.18;;
78931;SDS011;68331;53.362;55.932;2023-07-09T00:52:44;23.67;;;11.55;;
78931;SDS011;68331;53.362;55.932;2023-07-09T00:55:17;20.30;;;10.88;;
78931;SDS011;68331;53.362;55.932;2023-07-09T00:57:48;18.88;;;10.95;;
78931;SDS011;68331;53.362;55.932;2023-07-09T01:00:23;20.42;;;11.07;;
78931;SDS011;68331;53.362;55.932;2023-07-09T01:02:53;19.23;;;11.15;;
78931;SDS011;68331;53.362;55.932;2023-07-09T01:05:19;21.45;;;12.25;;
78931;SDS011;68331;53.362;55.932;2023-07-09T01:07:46;22.90;;;11.45;;
78931;SDS011;68331;53.362;55.932;2023-07-09T01:10:15;19.42;;;11.90;;
78931;SDS011;68331;53.362;55.932;2023-07-09T01:12:44;24.77;;;11.57;;
78931;SDS011;68331;53.362;55.932;2023-07-09T01:15:13;18.67;;;11.25;;
78931;SDS011;68331;53.362;55.932;2023-07-09T01:17:41;19.67;;;11.60;;
78931;SDS011;68331;53.362;55.932;2023-07-09T01:20:14;21.33;;;10.88;;
78931;SDS011;68331;53.362;55.932;2023-07-09T01:22:50;23.02;;;11.25;;
78931;SDS011;68331;53.362;55.932;2023-07-09T01:25:20;16.23;;;11.20;;
78931;SDS011;68331;53.362;55.932;2023-07-09T01:27:47;19.02;;;10.07;;
78931;SDS011;68331;53.362;55.932;2023-07-09T01:32:42;16.33;;;10.25;;
78931;SDS011;68331;53.362;55.932;2023-07-09T01:35:12;15.93;;;9.57;;
78931;SDS011;68331;53.362;55.932;2023-07-09T01:37:41;17.17;;;9.90;;
78931;SDS011;68331;53.362;55.932;2023-07-09T01:40:09;15.52;;;9.27;;
78931;SDS011;68331;53.362;55.932;2023-07-09T01:42:37;16.20;;;9.68;;
78931;SDS011;68331;53.362;55.932;2023-07-09T01:45:06;16.85;;;8.75;;
78931;SDS011;68331;53.362;55.932;2023-07-09T01:47:33;13.02;;;9.35;;
78931;SDS011;68331;53.362;55.932;2023-07-09T01:49:59;19.80;;;9.93;;
78931;SDS011;68331;53.362;55.932;2023-07-09T01:52:31;21.15;;;9.23;;
78931;SDS011;68331;53.362;55.932;2023-07-09T01:54:59;17.35;;;9.27;;
78931;SDS011;68331;53.362;55.932;2023-07-09T01:57:27;15.57;;;9.02;;
78931;SDS011;68331;53.362;55.932;2023-07-09T02:00:05;14.27;;;8.57;;
78931;SDS011;68331;53.362;55.932;2023-07-09T02:02:44;15.98;;;8.30;;
78931;SDS011;68331;53.362;55.932;2023-07-09T02:05:13;12.65;;;8.45;;
78931;SDS011;68331;53.362;55.932;2023-07-09T02:07:45;12.27;;;7.75;;
78931;SDS011;68331;53.362;55.932;2023-07-09T02:10:12;11.90;;;7.07;;
78931;SDS011;68331;53.362;55.932;2023-07-09T02:12:42;11.98;;;7.55;;
78931;SDS011;68331;53.362;55.932;2023-07-09T02:15:10;13.30;;;8.15;;
78931;SDS011;68331;53.362;55.932;2023-07-09T02:17:37;11.90;;;7.97;;
78931;SDS011;68331;53.362;55.932;2023-07-09T02:20:03;12.30;;;8.10;;
78931;SDS011;68331;53.362;55.932;2023-07-09T02:22:33;16.30;;;8.57;;
78931;SDS011;68331;53.362;55.932;2023-07-09T02:25:03;18.95;;;8.82;;
78931;SDS011;68331;53.362;55.932;2023-07-09T02:27:31;13.70;;;8.77;;
78931;SDS011;68331;53.362;55.932;2023-07-09T02:29:58;12.48;;;7.93;;
78931;SDS011;68331;53.362;55.932;2023-07-09T02:32:26;13.27;;;8.48;;
78931;SDS011;68331;53.362;55.932;2023-07-09T02:34:52;14.68;;;8.07;;
78931;SDS011;68331;53.362;55.932;2023-07-09T02:37:21;14.38;;;9.20;;
78931;SDS011;68331;53.362;55.932;2023-07-09T02:39:48;15.80;;;8.35;;
78931;SDS011;68331;53.362;55.932;2023-07-09T02:42:16;13.00;;;8.55;;
78931;SDS011;68331;53.362;55.932;2023-07-09T02:44:44;16.60;;;9.07;;
78931;SDS011;68331;53.362;55.932;2023-07-09T02:47:12;13.55;;;8.38;;
78931;SDS011;68331;53.362;55.932;2023-07-09T02:49:39;18.63;;;9.30;;
78931;SDS011;68331;53.362;55.932;2023-07-09T02:52:06;23.15;;;10.27;;
78931;SDS011;68331;53.362;55.932;2023-07-09T02:56:58;15.15;;;8.70;;
78931;SDS011;68331;53.362;55.932;2023-07-09T02:59:24;13.30;;;7.88;;
78931;SDS011;68331;53.362;55.932;2023-07-09T03:01:52;14.75;;;8.63;;
78931;SDS011;68331;53.362;55.932;2023-07-09T03:04:18;13.63;;;9.00;;
78931;SDS011;68331;53.362;55.932;2023-07-09T03:06:47;14.05;;;8.02;;
78931;SDS011;68331;53.362;55.932;2023-07-09T03:09:13;12.40;;;8.40;;
78931;SDS011;68331;53.362;55.932;2023-07-09T03:11:39;17.23;;;8.98;;
78931;SDS011;68331;53.362;55.932;2023-07-09T03:14:05;11.45;;;8.55;;
78931;SDS011;68331;53.362;55.932;2023-07-09T03:16:31;12.65;;;8.82;;
78931;SDS011;68331;53.362;55.932;2023-07-09T03:18:59;12.15;;;8.52;;
78931;SDS011;68331;53.362;55.932;2023-07-09T03:21:27;11.48;;;7.90;;
78931;SDS011;68331;53.362;55.932;2023-07-09T03:23:54;14.48;;;9.45;;
78931;SDS011;68331;53.362;55.932;2023-07-09T03:26:20;13.82;;;9.18;;
78931;SDS011;68331;53.362;55.932;2023-07-09T03:28:47;17.45;;;8.50;;
78931;SDS011;68331;53.362;55.932;2023-07-09T03:31:13;11.77;;;7.35;;
78931;SDS011;68331;53.362;55.932;2023-07-09T03:33:39;13.40;;;8.85;;
78931;SDS011;68331;53.362;55.932;2023-07-09T03:36:05;13.73;;;7.95;;
78931;SDS011;68331;53.362;55.932;2023-07-09T03:38:32;13.18;;;8.77;;
78931;SDS011;68331;53.362;55.932;2023-07-09T03:43:24;13.82;;;8.77;;
78931;SDS011;68331;53.362;55.932;2023-07-09T03:45:50;17.23;;;8.27;;
78931;SDS011;68331;53.362;55.932;2023-07-09T03:48:18;17.60;;;8.63;;
78931;SDS011;68331;53.362;55.932;2023-07-09T03:50:46;13.30;;;8.55;;
78931;SDS011;68331;53.362;55.932;2023-07-09T03:53:14;14.23;;;9.35;;
78931;SDS011;68331;53.362;55.932;2023-07-09T03:55:40;13.68;;;9.27;;
78931;SDS011;68331;53.362;55.932;2023-07-09T03:58:07;13.48;;;9.02;;
78931;SDS011;68331;53.362;55.932;2023-07-09T04:00:33;19.27;;;9.50;;
78931;SDS011;68331;53.362;55.932;2023-07-09T04:03:00;12.40;;;9.40;;
78931;SDS011;68331;53.362;55.932;2023-07-09T04:05:27;12.68;;;9.20;;
78931;SDS011;68331;53.362;55.932;2023-07-09T04:07:53;11.98;;;8.65;;
78931;SDS011;68331;53.362;55.932;2023-07-09T04:10:19;9.60;;;8.52;;
78931;SDS011;68331;53.362;55.932;2023-07-09T04:12:45;14.40;;;8.60;;
78931;SDS011;68331;53.362;55.932;2023-07-09T04:15:12;13.32;;;8.38;;
78931;SDS011;68331;53.362;55.932;2023-07-09T04:17:39;16.40;;;9.43;;
78931;SDS011;68331;53.362;55.932;2023-07-09T04:20:06;11.88;;;8.52;;
78931;SDS011;68331;53.362;55.932;2023-07-09T04:22:36;12.65;;;8.85;;
78931;SDS011;68331;53.362;55.932;2023-07-09T04:25:04;12.32;;;9.25;;
78931;SDS011;68331;53.362;55.932;2023-07-09T04:27:32;13.65;;;9.10;;
78931;SDS011;68331;53.362;55.932;2023-07-09T04:30:00;16.17;;;9.82;;
78931;SDS011;68331;53.362;55.932;2023-07-09T04:32:26;13.02;;;8.68;;
78931;SDS011;68331;53.362;55.932;2023-07-09T04:34:52;16.15;;;8.40;;
78931;SDS011;68331;53.362;55.932;2023-07-09T04:37:19;12.95;;;8.35;;
78931;SDS011;68331;53.362;55.932;2023-07-09T04:39:45;14.23;;;8.68;;
78931;SDS011;68331;53.362;55.932;2023-07-09T04:42:15;11.45;;;8.70;;
78931;SDS011;68331;53.362;55.932;2023-07-09T04:44:43;10.57;;;9.05;;
78931;SDS011;68331;53.362;55.932;2023-07-09T04:47:11;9.95;;;8.30;;
78931;SDS011;68331;53.362;55.932;2023-07-09T04:49:38;13.48;;;8.85;;
78931;SDS011;68331;53.362;55.932;2023-07-09T04:52:04;9.60;;;7.70;;
78931;SDS011;68331;53.362;55.932;2023-07-09T04:54:31;12.32;;;8.07;;
78931;SDS011;68331;53.362;55.932;2023-07-09T04:56:58;9.10;;;7.40;;
78931;SDS011;68331;53.362;55.932;2023-07-09T04:59:24;9.55;;;7.65;;
78931;SDS011;68331;53.362;55.932;2023-07-09T05:01:50;9.70;;;7.90;;
78931;SDS011;68331;53.362;55.932;2023-07-09T05:04:16;9.07;;;7.55;;
78931;SDS011;68331;53.362;55.932;2023-07-09T05:06:42;11.52;;;7.30;;
78931;SDS011;68331;53.362;55.932;2023-07-09T05:09:08;10.00;;;8.38;;
78931;SDS011;68331;53.362;55.932;2023-07-09T05:11:35;9.98;;;7.70;;
78931;SDS011;68331;53.362;55.932;2023-07-09T05:14:02;7.85;;;6.95;;
78931;SDS011;68331;53.362;55.932;2023-07-09T05:16:29;9.48;;;8.00;;
78931;SDS011;68331;53.362;55.932;2023-07-09T05:18:55;10.63;;;7.75;;
78931;SDS011;68331;53.362;55.932;2023-07-09T05:21:21;9.18;;;7.25;;
78931;SDS011;68331;53.362;55.932;2023-07-09T05:23:47;10.05;;;7.72;;
78931;SDS011;68331;53.362;55.932;2023-07-09T05:26:13;9.48;;;6.95;;
78931;SDS011;68331;53.362;55.932;2023-07-09T05:28:39;12.13;;;7.85;;
78931;SDS011;68331;53.362;55.932;2023-07-09T05:31:05;9.13;;;7.00;;
78931;SDS011;68331;53.362;55.932;2023-07-09T05:33:31;9.48;;;7.07;;
78931;SDS011;68331;53.362;55.932;2023-07-09T05:38:24;18.23;;;8.40;;
78931;SDS011;68331;53.362;55.932;2023-07-09T05:40:58;8.20;;;7.35;;
78931;SDS011;68331;53.362;55.932;2023-07-09T05:43:30;9.23;;;7.32;;
78931;SDS011;68331;53.362;55.932;2023-07-09T05:45:56;9.10;;;7.40;;
78931;SDS011;68331;53.362;55.932;2023-07-09T05:48:23;8.77;;;7.50;;
78931;SDS011;68331;53.362;55.932;2023-07-09T05:50:52;8.18;;;7.32;;
78931;SDS011;68331;53.362;55.932;2023-07-09T05:53:20;9.98;;;6.95;;
78931;SDS011;68331;53.362;55.932;2023-07-09T05:55:47;10.98;;;7.93;;
78931;SDS011;68331;53.362;55.932;2023-07-09T05:58:13;9.50;;;8.20;;
78931;SDS011;68331;53.362;55.932;2023-07-09T06:00:39;8.77;;;7.88;;
78931;SDS011;68331;53.362;55.932;2023-07-09T06:03:07;8.60;;;7.18;;
78931;SDS011;68331;53.362;55.932;2023-07-09T06:05:33;8.65;;;7.85;;
78931;SDS011;68331;53.362;55.932;2023-07-09T06:07:59;9.93;;;7.80;;
78931;SDS011;68331;53.362;55.932;2023-07-09T06:10:25;8.32;;;7.47;;
78931;SDS011;68331;53.362;55.932;2023-07-09T06:12:51;7.82;;;6.75;;
78931;SDS011;68331;53.362;55.932;2023-07-09T06:15:18;8.48;;;7.68;;
78931;SDS011;68331;53.362;55.932;2023-07-09T06:17:44;10.45;;;7.20;;
78931;SDS011;68331;53.362;55.932;2023-07-09T06:20:10;13.23;;;7.40;;
78931;SDS011;68331;53.362;55.932;2023-07-09T06:22:36;10.75;;;7.72;;
78931;SDS011;68331;53.362;55.932;2023-07-09T06:25:02;9.52;;;7.95;;
78931;SDS011;68331;53.362;55.932;2023-07-09T06:27:30;9.65;;;7.53;;
78931;SDS011;68331;53.362;55.932;2023-07-09T06:29:56;8.82;;;7.32;;
78931;SDS011;68331;53.362;55.932;2023-07-09T06:32:21;7.22;;;6.45;;
78931;SDS011;68331;53.362;55.932;2023-07-09T06:34:48;8.20;;;7.55;;
78931;SDS011;68331;53.362;55.932;2023-07-09T06:37:14;7.90;;;7.20;;
78931;SDS011;68331;53.362;55.932;2023-07-09T06:39:40;8.77;;;7.63;;
78931;SDS011;68331;53.362;55.932;2023-07-09T06:42:06;8.68;;;7.00;;
78931;SDS011;68331;53.362;55.932;2023-07-09T06:44:48;12.48;;;7.55;;
78931;SDS011;68331;53.362;55.932;2023-07-09T06:47:14;9.05;;;7.25;;
78931;SDS011;68331;53.362;55.932;2023-07-09T06:49:40;7.88;;;7.07;;
78931;SDS011;68331;53.362;55.932;2023-07-09T06:52:06;9.35;;;7.47;;
78931;SDS011;68331;53.362;55.932;2023-07-09T06:54:32;8.48;;;7.40;;
78931;SDS011;68331;53.362;55.932;2023-07-09T06:56:58;9.27;;;7.60;;
78931;SDS011;68331;53.362;55.932;2023-07-09T06:59:24;13.43;;;7.43;;
78931;SDS011;68331;53.362;55.932;2023-07-09T07:01:50;8.90;;;7.72;;
78931;SDS011;68331;53.362;55.932;2023-07-09T07:04:16;8.43;;;7.63;;
78931;SDS011;68331;53.362;55.932;2023-07-09T07:06:42;7.78;;;7.00;;
78931;SDS011;68331;53.362;55.932;2023-07-09T07:09:08;9.07;;;7.25;;
78931;SDS011;68331;53.362;55.932;2023-07-09T07:11:34;8.43;;;7.32;;
78931;SDS011;68331;53.362;55.932;2023-07-09T07:14:00;9.73;;;7.50;;
78931;SDS011;68331;53.362;55.932;2023-07-09T07:16:26;8.55;;;7.60;;
78931;SDS011;68331;53.362;55.932;2023-07-09T07:21:18;9.23;;;7.47;;
78931;SDS011;68331;53.362;55.932;2023-07-09T07:26:10;8.70;;;7.57;;
78931;SDS011;68331;53.362;55.932;2023-07-09T07:28:36;11.55;;;8.20;;
78931;SDS011;68331;53.362;55.932;2023-07-09T07:31:03;10.82;;;8.80;;
78931;SDS011;68331;53.362;55.932;2023-07-09T07:33:34;10.82;;;8.80;;
78931;SDS011;68331;53.362;55.932;2023-07-09T07:36:03;8.80;;;7.90;;
78931;SDS011;68331;53.362;55.932;2023-07-09T07:38:30;9.13;;;7.65;;
78931;SDS011;68331;53.362;55.932;2023-07-09T07:40:57;10.55;;;7.85;;
78931;SDS011;68331;53.362;55.932;2023-07-09T07:43:23;12.30;;;8.77;;
78931;SDS011;68331;53.362;55.932;2023-07-09T07:45:49;8.93;;;7.32;;
78931;SDS011;68331;53.362;55.932;2023-07-09T07:48:15;9.48;;;8.30;;
78931;SDS011;68331;53.362;55.932;2023-07-09T07:50:41;9.00;;;7.22;;
78931;SDS011;68331;53.362;55.932;2023-07-09T07:53:07;11.68;;;7.72;;
78931;SDS011;68331;53.362;55.932;2023-07-09T07:55:34;11.70;;;7.70;;
78931;SDS011;68331;53.362;55.932;2023-07-09T07:58:02;9.10;;;8.20;;
78931;SDS011;68331;53.362;55.932;2023-07-09T08:00:30;9.32;;;7.82;;
78931;SDS011;68331;53.362;55.932;2023-07-09T08:02:56;9.38;;;8.07;;
78931;SDS011;68331;53.362;55.932;2023-07-09T08:05:23;8.45;;;7.65;;
78931;SDS011;68331;53.362;55.932;2023-07-09T08:07:50;11.90;;;8.10;;
78931;SDS011;68331;53.362;55.932;2023-07-09T08:10:16;8.70;;;7.45;;
78931;SDS011;68331;53.362;55.932;2023-07-09T08:12:42;10.18;;;8.02;;
78931;SDS011;68331;53.362;55.932;2023-07-09T08:15:08;9.93;;;8.20;;
78931;SDS011;68331;53.362;55.932;2023-07-09T08:20:00;9.30;;;8.38;;
78931;SDS011;68331;53.362;55.932;2023-07-09T08:24:52;11.27;;;8.40;;
78931;SDS011;68331;53.362;55.932;2023-07-09T08:27:18;9.45;;;8.55;;
78931;SDS011;68331;53.362;55.932;2023-07-09T08:29:45;11.43;;;8.25;;
78931;SDS011;68331;53.362;55.932;2023-07-09T08:32:12;9.75;;;7.57;;
78931;SDS011;68331;53.362;55.932;2023-07-09T08:34:40;11.23;;;8.05;;
78931;SDS011;68331;53.362;55.932;2023-07-09T08:37:07;11.45;;;8.20;;
78931;SDS011;68331;53.362;55.932;2023-07-09T08:39:34;9.55;;;8.27;;
78931;SDS011;68331;53.362;55.932;2023-07-09T08:44:37;9.93;;;8.00;;
78931;SDS011;68331;53.362;55.932;2023-07-09T08:47:45;10.63;;;8.32;;
78931;SDS011;68331;53.362;55.932;2023-07-09T08:50:28;11.75;;;8.63;;
78931;SDS011;68331;53.362;55.932;2023-07-09T08:53:03;9.38;;;8.48;;
78931;SDS011;68331;53.362;55.932;2023-07-09T08:55:30;10.52;;;7.78;;
78931;SDS011;68331;53.362;55.932;2023-07-09T08:58:23;11.95;;;7.88;;
78931;SDS011;68331;53.362;55.932;2023-07-09T09:00:53;11.18;;;8.52;;
78931;SDS011;68331;53.362;55.932;2023-07-09T09:03:29;8.00;;;7.20;;
78931;SDS011;68331;53.362;55.932;2023-07-09T09:06:20;12.82;;;8.48;;
78931;SDS011;68331;53.362;55.932;2023-07-09T09:11:33;9.25;;;7.93;;
78931;SDS011;68331;53.362;55.932;2023-07-09T09:14:16;14.00;;;8.00;;
78931;SDS011;68331;53.362;55.932;2023-07-09T09:17:15;10.55;;;7.85;;
78931;SDS011;68331;53.362;55.932;2023-07-09T09:19:45;12.60;;;8.52;;
78931;SDS011;68331;53.362;55.932;2023-07-09T09:22:16;9.35;;;8.45;;
78931;SDS011;68331;53.362;55.932;2023-07-09T09:27:17;10.32;;;7.90;;
78931;SDS011;68331;53.362;55.932;2023-07-09T09:29:43;10.63;;;8.27;;
78931;SDS011;68331;53.362;55.932;2023-07-09T09:34:56;10.18;;;8.25;;
78931;SDS011;68331;53.362;55.932;2023-07-09T09:39:56;9.18;;;8.23;;
78931;SDS011;68331;53.362;55.932;2023-07-09T09:42:24;7.93;;;7.13;;
78931;SDS011;68331;53.362;55.932;2023-07-09T09:44:53;9.10;;;8.20;;
78931;SDS011;68331;53.362;55.932;2023-07-09T09:47:20;10.75;;;8.73;;
78931;SDS011;68331;53.362;55.932;2023-07-09T09:49:51;10.95;;;9.43;;
78931;SDS011;68331;53.362;55.932;2023-07-09T09:52:18;11.38;;;8.15;;
78931;SDS011;68331;53.362;55.932;2023-07-09T09:54:52;9.95;;;7.25;;
78931;SDS011;68331;53.362;55.932;2023-07-09T09:57:24;10.15;;;8.00;;
78931;SDS011;68331;53.362;55.932;2023-07-09T09:59:50;8.35;;;7.43;;
78931;SDS011;68331;53.362;55.932;2023-07-09T10:02:20;8.57;;;7.45;;
78931;SDS011;68331;53.362;55.932;2023-07-09T10:04:49;10.13;;;8.32;;
78931;SDS011;68331;53.362;55.932;2023-07-09T10:09:59;12.88;;;8.45;;
78931;SDS011;68331;53.362;55.932;2023-07-09T10:15:43;12.05;;;8.93;;
78931;SDS011;68331;53.362;55.932;2023-07-09T10:18:32;11.10;;;8.77;;
78931;SDS011;68331;53.362;55.932;2023-07-09T10:27:08;10.20;;;8.60;;
78931;SDS011;68331;53.362;55.932;2023-07-09T10:35:11;10.15;;;8.60;;
78931;SDS011;68331;53.362;55.932;2023-07-09T10:40:36;9.45;;;8.57;;
78931;SDS011;68331;53.362;55.932;2023-07-09T10:43:09;11.60;;;8.15;;
78931;SDS011;68331;53.362;55.932;2023-07-09T10:45:42;9.75;;;8.85;;
78931;SDS011;68331;53.362;55.932;2023-07-09T10:48:18;13.77;;;8.57;;
78931;SDS011;68331;53.362;55.932;2023-07-09T10:50:55;9.50;;;8.65;;
78931;SDS011;68331;53.362;55.932;2023-07-09T10:56:12;10.20;;;7.75;;
78931;SDS011;68331;53.362;55.932;2023-07-09T10:58:57;10.98;;;8.95;;
78931;SDS011;68331;53.362;55.932;2023-07-09T11:01:41;14.40;;;9.25;;
78931;SDS011;68331;53.362;55.932;2023-07-09T11:04:24;16.75;;;8.50;;
78931;SDS011;68331;53.362;55.932;2023-07-09T11:06:56;9.68;;;8.68;;
78931;SDS011;68331;53.362;55.932;2023-07-09T11:09:26;10.00;;;8.93;;
78931;SDS011;68331;53.362;55.932;2023-07-09T11:11:59;9.35;;;8.38;;
78931;SDS011;68331;53.362;55.932;2023-07-09T11:14:36;11.52;;;8.98;;
78931;SDS011;68331;53.362;55.932;2023-07-09T11:17:13;9.82;;;7.78;;
78931;SDS011;68331;53.362;55.932;2023-07-09T11:19:41;9.13;;;8.20;;
78931;SDS011;68331;53.362;55.932;2023-07-09T11:22:14;10.75;;;8.25;;
78931;SDS011;68331;53.362;55.932;2023-07-09T11:24:50;9.63;;;8.07;;
78931;SDS011;68331;53.362;55.932;2023-07-09T11:29:47;9.52;;;8.57;;
78931;SDS011;68331;53.362;55.932;2023-07-09T11:32:21;9.40;;;8.40;;
78931;SDS011;68331;53.362;55.932;2023-07-09T11:34:48;10.73;;;7.78;;
78931;SDS011;68331;53.362;55.932;2023-07-09T11:37:15;11.65;;;7.65;;
78931;SDS011;68331;53.362;55.932;2023-07-09T11:39:48;9.68;;;8.50;;
78931;SDS011;68331;53.362;55.932;2023-07-09T11:42:25;8.35;;;7.55;;
78931;SDS011;68331;53.362;55.932;2023-07-09T11:45:00;10.52;;;7.75;;
78931;SDS011;68331;53.362;55.932;2023-07-09T11:50:22;9.60;;;8.60;;
78931;SDS011;68331;53.362;55.932;2023-07-09T11:55:41;9.80;;;8.65;;
78931;SDS011;68331;53.362;55.932;2023-07-09T11:58:14;11.20;;;9.07;;
78931;SDS011;68331;53.362;55.932;2023-07-09T12:03:11;9.85;;;7.68;;
78931;SDS011;68331;53.362;55.932;2023-07-09T12:05:41;9.82;;;8.00;;
78931;SDS011;68331;53.362;55.932;2023-07-09T12:08:15;10.27;;;8.23;;
78931;SDS011;68331;53.362;55.932;2023-07-09T12:10:43;10.68;;;8.18;;
78931;SDS011;68331;53.362;55.932;2023-07-09T12:13:13;10.30;;;7.82;;
78931;SDS011;68331;53.362;55.932;2023-07-09T12:15:40;10.85;;;7.80;;
78931;SDS011;68331;53.362;55.932;2023-07-09T12:18:11;8.77;;;7.85;;
78931;SDS011;68331;53.362;55.932;2023-07-09T12:20:39;9.75;;;8.43;;
78931;SDS011;68331;53.362;55.932;2023-07-09T12:23:11;11.15;;;7.95;;
78931;SDS011;68331;53.362;55.932;2023-07-09T12:25:47;12.32;;;8.23;;
78931;SDS011;68331;53.362;55.932;2023-07-09T12:28:15;8.60;;;7.68;;
78931;SDS011;68331;53.362;55.932;2023-07-09T12:30:50;10.10;;;7.93;;
78931;SDS011;68331;53.362;55.932;2023-07-09T12:33:18;11.48;;;7.70;;
78931;SDS011;68331;53.362;55.932;2023-07-09T12:35:46;11.30;;;7.68;;
78931;SDS011;68331;53.362;55.932;2023-07-09T12:38:19;18.15;;;10.98;;
78931;SDS011;68331;53.362;55.932;2023-07-09T12:40:50;12.20;;;7.85;;
78931;SDS011;68331;53.362;55.932;2023-07-09T12:43:19;9.88;;;7.22;;
78931;SDS011;68331;53.362;55.932;2023-07-09T12:45:56;9.00;;;7.45;;
78931;SDS011;68331;53.362;55.932;2023-07-09T12:48:24;10.55;;;7.72;;
78931;SDS011;68331;53.362;55.932;2023-07-09T12:50:55;9.95;;;7.22;;
78931;SDS011;68331;53.362;55.932;2023-07-09T12:53:23;9.43;;;7.13;;
78931;SDS011;68331;53.362;55.932;2023-07-09T12:55:55;8.98;;;8.00;;
78931;SDS011;68331;53.362;55.932;2023-07-09T12:58:23;9.95;;;7.75;;
78931;SDS011;68331;53.362;55.932;2023-07-09T13:00:53;11.90;;;7.97;;
78931;SDS011;68331;53.362;55.932;2023-07-09T13:03:21;19.10;;;9.27;;
78931;SDS011;68331;53.362;55.932;2023-07-09T13:05:52;10.63;;;8.50;;
78931;SDS011;68331;53.362;55.932;2023-07-09T13:08:32;9.80;;;7.57;;
78931;SDS011;68331;53.362;55.932;2023-07-09T13:11:15;10.10;;;8.10;;
78931;SDS011;68331;53.362;55.932;2023-07-09T13:13:52;9.82;;;7.75;;
78931;SDS011;68331;53.362;55.932;2023-07-09T13:16:21;11.23;;;7.85;;
78931;SDS011;68331;53.362;55.932;2023-07-09T13:18:46;9.63;;;7.38;;
78931;SDS011;68331;53.362;55.932;2023-07-09T13:21:14;11.88;;;8.10;;
78931;SDS011;68331;53.362;55.932;2023-07-09T13:23:43;11.52;;;7.20;;
78931;SDS011;68331;53.362;55.932;2023-07-09T13:26:09;11.40;;;7.38;;
78931;SDS011;68331;53.362;55.932;2023-07-09T13:28:35;10.02;;;8.07;;
78931;SDS011;68331;53.362;55.932;2023-07-09T13:31:08;8.88;;;7.97;;
78931;SDS011;68331;53.362;55.932;2023-07-09T13:33:38;11.70;;;7.72;;
78931;SDS011;68331;53.362;55.932;2023-07-09T13:36:04;8.95;;;7.57;;
78931;SDS011;68331;53.362;55.932;2023-07-09T13:38:32;12.73;;;8.43;;
78931;SDS011;68331;53.362;55.932;2023-07-09T13:41:00;13.10;;;7.70;;
78931;SDS011;68331;53.362;55.932;2023-07-09T13:43:36;10.90;;;7.85;;
78931;SDS011;68331;53.362;55.932;2023-07-09T13:46:03;9.98;;;6.93;;
78931;SDS011;68331;53.362;55.932;2023-07-09T13:48:33;9.45;;;7.18;;
78931;SDS011;68331;53.362;55.932;2023-07-09T13:51:00;9.02;;;6.88;;
78931;SDS011;68331;53.362;55.932;2023-07-09T13:53:29;8.18;;;7.38;;
78931;SDS011;68331;53.362;55.932;2023-07-09T13:55:57;7.97;;;7.18;;
78931;SDS011;68331;53.362;55.932;2023-07-09T13:58:24;9.75;;;7.13;;
78931;SDS011;68331;53.362;55.932;2023-07-09T14:00:56;8.02;;;7.18;;
78931;SDS011;68331;53.362;55.932;2023-07-09T14:03:30;9.00;;;7.18;;
78931;SDS011;68331;53.362;55.932;2023-07-09T14:05:57;9.43;;;6.75;;
78931;SDS011;68331;53.362;55.932;2023-07-09T14:08:24;8.40;;;6.43;;
78931;SDS011;68331;53.362;55.932;2023-07-09T14:10:50;15.88;;;7.82;;
78931;SDS011;68331;53.362;55.932;2023-07-09T14:13:18;10.27;;;7.15;;
78931;SDS011;68331;53.362;55.932;2023-07-09T14:15:46;10.00;;;7.55;;
78931;SDS011;68331;53.362;55.932;2023-07-09T14:18:14;10.82;;;7.57;;
78931;SDS011;68331;53.362;55.932;2023-07-09T14:20:42;11.13;;;6.95;;
78931;SDS011;68331;53.362;55.932;2023-07-09T14:23:13;8.15;;;7.05;;
78931;SDS011;68331;53.362;55.932;2023-07-09T14:25:43;12.68;;;6.95;;
78931;SDS011;68331;53.362;55.932;2023-07-09T14:28:11;9.40;;;7.00;;
78931;SDS011;68331;53.362;55.932;2023-07-09T14:30:40;8.38;;;6.93;;
78931;SDS011;68331;53.362;55.932;2023-07-09T14:33:09;8.95;;;7.00;;
78931;SDS011;68331;53.362;55.932;2023-07-09T14:35:39;10.07;;;7.25;;
78931;SDS011;68331;53.362;55.932;2023-07-09T14:38:11;11.90;;;6.90;;
78931;SDS011;68331;53.362;55.932;2023-07-09T14:40:43;12.13;;;8.73;;
78931;SDS011;68331;53.362;55.932;2023-07-09T14:43:10;10.48;;;8.45;;
78931;SDS011;68331;53.362;55.932;2023-07-09T14:45:37;12.55;;;8.80;;
78931;SDS011;68331;53.362;55.932;2023-07-09T14:50:37;12.70;;;8.52;;
78931;SDS011;68331;53.362;55.932;2023-07-09T14:53:05;14.30;;;8.82;;
78931;SDS011;68331;53.362;55.932;2023-07-09T14:55:39;11.00;;;9.02;;
78931;SDS011;68331;53.362;55.932;2023-07-09T14:58:11;10.57;;;8.57;;
78931;SDS011;68331;53.362;55.932;2023-07-09T15:00:41;15.55;;;8.43;;
78931;SDS011;68331;53.362;55.932;2023-07-09T15:03:09;20.00;;;9.38;;
78931;SDS011;68331;53.362;55.932;2023-07-09T15:05:37;15.32;;;8.63;;
78931;SDS011;68331;53.362;55.932;2023-07-09T15:08:13;16.02;;;7.97;;
78931;SDS011;68331;53.362;55.932;2023-07-09T15:10:41;13.40;;;8.00;;
78931;SDS011;68331;53.362;55.932;2023-07-09T15:13:11;17.75;;;8.52;;
78931;SDS011;68331;53.362;55.932;2023-07-09T15:15:45;13.20;;;7.50;;
78931;SDS011;68331;53.362;55.932;2023-07-09T15:18:12;15.25;;;8.32;;
78931;SDS011;68331;53.362;55.932;2023-07-09T15:20:42;17.00;;;8.55;;
78931;SDS011;68331;53.362;55.932;2023-07-09T15:23:13;10.65;;;8.45;;
78931;SDS011;68331;53.362;55.932;2023-07-09T15:25:39;18.55;;;14.75;;
78931;SDS011;68331;53.362;55.932;2023-07-09T15:28:07;13.52;;;8.55;;
78931;SDS011;68331;53.362;55.932;2023-07-09T15:30:38;14.23;;;8.68;;
78931;SDS011;68331;53.362;55.932;2023-07-09T15:33:04;10.43;;;8.40;;
78931;SDS011;68331;53.362;55.932;2023-07-09T15:35:33;10.77;;;7.75;;
78931;SDS011;68331;53.362;55.932;2023-07-09T15:40:57;12.77;;;8.45;;
78931;SDS011;68331;53.362;55.932;2023-07-09T15:45:50;17.20;;;10.45;;
78931;SDS011;68331;53.362;55.932;2023-07-09T15:50:49;16.00;;;10.52;;
78931;SDS011;68331;53.362;55.932;2023-07-09T15:53:19;17.73;;;11.27;;
78931;SDS011;68331;53.362;55.932;2023-07-09T15:55:46;22.50;;;12.32;;